Time;durP1;ratioP1;P1;durP2;ratioP2;P2;SDS_P1;SDS_P2;PMS_P1;PMS_P2;Temp;Humidity;BMP_temperature;BMP_pressure;BME280_temperature;BME280_humidity;BME280_pressure;Samples;Min_cycle;Max_cycle;Signal;HPM_P1;HPM_P2
2023/08/08 00:02:14;;;;;;;0.00;0.00;;;16.00;99.90;;;;;;5043482;28;20041;-69
2023/08/08 00:04:40;;;;;;;1.08;0.22;;;16.00;99.90;;;;;;5037853;28;20476;-70
2023/08/08 00:07:06;;;;;;;0.10;0.10;;;16.00;99.90;;;;;;5049843;28;20051;-70
2023/08/08 00:09:32;;;;;;;0.00;0.00;;;15.90;99.90;;;;;;5043006;28;20464;-70
2023/08/08 00:11:57;;;;;;;1.65;0.82;;;15.90;99.90;;;;;;5049748;28;20055;-70
2023/08/08 00:14:24;;;;;;;0.05;0.05;;;15.90;99.90;;;;;;5037292;28;20071;-70
2023/08/08 00:16:49;;;;;;;0.08;0.08;;;15.90;99.90;;;;;;5046958;28;20407;-70
2023/08/08 00:19:15;;;;;;;0.00;0.00;;;15.80;99.90;;;;;;5051279;28;20037;-70
2023/08/08 00:21:41;;;;;;;0.00;0.00;;;15.80;99.90;;;;;;5041762;28;20068;-70
2023/08/08 00:24:06;;;;;;;0.20;0.20;;;15.80;99.90;;;;;;5049199;28;20518;-70
2023/08/08 00:26:32;;;;;;;0.08;0.08;;;15.80;99.90;;;;;;5049360;28;20456;-70
2023/08/08 00:28:58;;;;;;;0.00;0.00;;;15.70;99.90;;;;;;5039394;28;20095;-70
2023/08/08 00:31:23;;;;;;;0.00;0.00;;;15.80;99.90;;;;;;5047310;28;20523;-70
2023/08/08 00:33:49;;;;;;;0.10;0.10;;;15.70;99.90;;;;;;5045736;28;20064;-71
2023/08/08 00:36:14;;;;;;;0.00;0.00;;;15.70;99.90;;;;;;5039157;28;20044;-70
2023/08/08 00:38:40;;;;;;;0.00;0.00;;;15.70;99.90;;;;;;5041977;28;20048;-70
2023/08/08 00:41:05;;;;;;;0.10;0.10;;;15.60;99.90;;;;;;5045334;28;20069;-70
2023/08/08 00:43:31;;;;;;;0.00;0.00;;;15.70;99.90;;;;;;5048363;28;20484;-70
2023/08/08 00:45:57;;;;;;;0.15;0.10;;;15.60;99.90;;;;;;5040318;28;20045;-70
2023/08/08 00:48:23;;;;;;;0.10;0.10;;;15.70;99.90;;;;;;5045137;28;20053;-70
2023/08/08 00:50:50;;;;;;;0.00;0.00;;;15.60;99.90;;;;;;5037977;28;20053;-70
2023/08/08 00:53:18;;;;;;;0.00;0.00;;;15.60;99.90;;;;;;5044881;28;20519;-70
2023/08/08 00:55:43;;;;;;;0.20;0.20;;;15.60;99.90;;;;;;5045843;28;20172;-70
2023/08/08 00:58:10;;;;;;;0.13;0.13;;;15.60;99.90;;;;;;5037130;28;20123;-70
2023/08/08 01:00:35;;;;;;;0.03;0.03;;;15.50;99.90;;;;;;5045713;28;20087;-70
2023/08/08 01:03:01;;;;;;;0.00;0.00;;;15.50;99.90;;;;;;5028360;28;20045;-70
2023/08/08 01:05:35;;;;;;;0.00;0.00;;;15.50;99.90;;;;;;5043773;28;20388;-70
2023/08/08 01:08:07;;;;;;;0.32;0.32;;;15.50;99.90;;;;;;5035214;28;20429;-70
2023/08/08 01:10:41;;;;;;;0.00;0.00;;;15.50;99.90;;;;;;5041400;28;20046;-70
2023/08/08 01:13:15;;;;;;;;;;;15.40;99.90;;;;;;5042778;28;20098;-70
2023/08/08 01:15:40;;;;;;;;;;;15.50;99.90;;;;;;5045264;28;20007;-70
2023/08/08 01:18:08;;;;;;;0.00;0.00;;;15.40;99.90;;;;;;5046483;28;20015;-70
2023/08/08 01:20:34;;;;;;;0.03;0.03;;;15.40;99.90;;;;;;5035668;28;20151;-70
2023/08/08 01:23:30;;;;;;;0.00;0.00;;;15.40;99.90;;;;;;5025388;28;20388;-69
2023/08/08 01:25:57;;;;;;;0.00;0.00;;;15.40;99.90;;;;;;5022274;28;20041;-70
2023/08/08 01:28:24;;;;;;;0.32;0.32;;;15.40;99.90;;;;;;5040580;28;20431;-70
2023/08/08 01:30:50;;;;;;;0.10;0.10;;;15.30;99.90;;;;;;5034879;28;20427;-70
2023/08/08 01:33:16;;;;;;;0.10;0.10;;;15.30;99.90;;;;;;5047412;28;20052;-70
2023/08/08 01:35:46;;;;;;;0.00;0.00;;;15.30;99.90;;;;;;5045059;28;20037;-70
2023/08/08 01:38:19;;;;;;;0.00;0.00;;;15.40;99.90;;;;;;5030044;28;20052;-70
2023/08/08 01:40:45;;;;;;;;;;;15.40;99.90;;;;;;5044712;28;20045;-70
2023/08/08 01:43:13;;;;;;;0.55;0.55;;;15.40;99.90;;;;;;5039823;28;19928;-70
2023/08/08 01:45:39;;;;;;;0.08;0.08;;;15.30;99.90;;;;;;5043888;28;20045;-71
2023/08/08 01:48:09;;;;;;;6.65;0.52;;;15.40;99.90;;;;;;5030750;28;20040;-70
2023/08/08 01:50:35;;;;;;;0.00;0.00;;;15.40;99.90;;;;;;5039574;28;20109;-70
2023/08/08 01:53:01;;;;;;;0.00;0.00;;;15.30;99.90;;;;;;5046576;28;20053;-70
2023/08/08 01:55:27;;;;;;;0.00;0.00;;;15.30;99.90;;;;;;5044121;28;20044;-70
2023/08/08 01:57:53;;;;;;;0.00;0.00;;;15.30;99.90;;;;;;5039819;28;20425;-70
2023/08/08 02:00:18;;;;;;;0.00;0.00;;;15.30;99.90;;;;;;5041309;28;20106;-70
2023/08/08 02:02:44;;;;;;;0.10;0.10;;;15.40;99.90;;;;;;5048476;28;20033;-70
2023/08/08 02:05:10;;;;;;;0.00;0.00;;;15.40;99.90;;;;;;5039409;28;20041;-70
2023/08/08 02:07:35;;;;;;;0.00;0.00;;;15.40;99.90;;;;;;5048038;28;20037;-70
2023/08/08 02:10:01;;;;;;;0.22;0.22;;;15.40;99.90;;;;;;5042694;28;20055;-70
2023/08/08 02:12:28;;;;;;;0.28;0.28;;;15.40;99.90;;;;;;5041252;28;20041;-70
2023/08/08 02:14:54;;;;;;;0.00;0.00;;;15.40;99.90;;;;;;5047226;28;20045;-70
2023/08/08 02:17:21;;;;;;;0.00;0.00;;;15.40;99.90;;;;;;5048292;28;20045;-70
2023/08/08 02:19:46;;;;;;;0.00;0.00;;;15.40;99.90;;;;;;5038595;28;20092;-70
2023/08/08 02:22:12;;;;;;;0.25;0.13;;;15.40;99.90;;;;;;5017680;28;20076;-71
2023/08/08 02:24:37;;;;;;;0.00;0.00;;;15.40;99.90;;;;;;5041163;28;20037;-70
2023/08/08 02:27:04;;;;;;;0.00;0.00;;;15.40;99.90;;;;;;5046978;28;20055;-71
2023/08/08 02:29:29;;;;;;;0.00;0.00;;;15.40;99.90;;;;;;5034433;28;20045;-70
2023/08/08 02:31:55;;;;;;;0.00;0.00;;;15.40;99.90;;;;;;5043038;28;20104;-71
2023/08/08 02:34:21;;;;;;;0.00;0.00;;;15.40;99.90;;;;;;5037609;28;20037;-70
2023/08/08 02:36:46;;;;;;;1.10;0.57;;;15.30;99.90;;;;;;5044985;28;20503;-71
2023/08/08 02:39:12;;;;;;;0.20;0.20;;;15.20;99.90;;;;;;5047532;28;20064;-71
2023/08/08 02:41:38;;;;;;;0.00;0.00;;;15.30;99.90;;;;;;5037266;28;20053;-71
2023/08/08 02:44:03;;;;;;;1.45;1.13;;;15.20;99.90;;;;;;5037299;28;20049;-71
2023/08/08 02:46:29;;;;;;;0.00;0.00;;;15.10;99.90;;;;;;5044552;28;20049;-71
2023/08/08 02:48:54;;;;;;;0.00;0.00;;;15.10;99.90;;;;;;5041827;28;20120;-71
2023/08/08 02:51:20;;;;;;;0.00;0.00;;;15.10;99.90;;;;;;5049759;28;20048;-70
2023/08/08 02:53:46;;;;;;;0.00;0.00;;;15.10;99.90;;;;;;5048858;28;20071;-71
2023/08/08 02:56:11;;;;;;;0.08;0.08;;;15.10;99.90;;;;;;5045392;28;20077;-70
2023/08/08 02:58:37;;;;;;;0.57;0.57;;;15.10;99.90;;;;;;5040281;28;20467;-70
2023/08/08 03:01:02;;;;;;;0.00;0.00;;;15.10;99.90;;;;;;5027670;28;20049;-71
2023/08/08 03:03:28;;;;;;;0.00;0.00;;;15.00;99.90;;;;;;5051116;28;20440;-71
2023/08/08 03:05:54;;;;;;;0.00;0.00;;;15.00;99.90;;;;;;5038581;28;20112;-70
2023/08/08 03:08:19;;;;;;;0.10;0.10;;;14.90;99.90;;;;;;5026623;28;20087;-71
2023/08/08 03:10:45;;;;;;;0.30;0.30;;;14.90;99.90;;;;;;5037683;28;20607;-71
2023/08/08 03:13:10;;;;;;;0.10;0.10;;;14.90;99.90;;;;;;5048223;28;20053;-70
2023/08/08 03:15:36;;;;;;;1.75;1.50;;;14.90;99.90;;;;;;5044667;28;20037;-70
2023/08/08 03:18:03;;;;;;;0.73;0.70;;;14.90;99.90;;;;;;5036333;28;20087;-70
2023/08/08 03:20:29;;;;;;;0.30;0.30;;;14.90;99.90;;;;;;5045503;28;20045;-71
2023/08/08 03:22:54;;;;;;;0.00;0.00;;;14.90;99.90;;;;;;5049959;28;20059;-71
2023/08/08 03:25:20;;;;;;;0.00;0.00;;;15.00;99.90;;;;;;5041647;28;20060;-70
2023/08/08 03:27:46;;;;;;;0.00;0.00;;;14.90;99.90;;;;;;5037158;28;20037;-70
2023/08/08 03:30:12;;;;;;;0.00;0.00;;;15.00;99.90;;;;;;5039567;28;20045;-71
2023/08/08 03:32:39;;;;;;;0.00;0.00;;;14.90;99.90;;;;;;5048595;28;20124;-71
2023/08/08 03:35:06;;;;;;;0.38;0.38;;;15.00;99.90;;;;;;5041008;28;20057;-71
2023/08/08 03:37:31;;;;;;;0.00;0.00;;;14.90;99.90;;;;;;5033632;28;20077;-71
2023/08/08 03:39:57;;;;;;;0.00;0.00;;;15.00;99.90;;;;;;5032924;28;20052;-71
2023/08/08 03:42:23;;;;;;;0.03;0.03;;;15.00;99.90;;;;;;5045221;28;20036;-71
2023/08/08 03:44:48;;;;;;;8.10;0.70;;;15.00;99.90;;;;;;5038594;28;20951;-71
2023/08/08 03:47:14;;;;;;;0.10;0.10;;;15.00;99.90;;;;;;5047418;28;20044;-71
2023/08/08 03:49:40;;;;;;;0.32;0.32;;;14.90;99.90;;;;;;5032839;28;20041;-71
2023/08/08 03:52:06;;;;;;;0.00;0.00;;;14.90;99.90;;;;;;5038943;28;20093;-71
2023/08/08 03:54:32;;;;;;;0.00;0.00;;;14.80;99.90;;;;;;5038806;28;20420;-71
2023/08/08 03:56:57;;;;;;;0.05;0.05;;;14.80;99.90;;;;;;5041845;28;20152;-71
2023/08/08 03:59:23;;;;;;;0.00;0.00;;;14.70;99.90;;;;;;5039585;28;20042;-70
2023/08/08 04:01:48;;;;;;;0.00;0.00;;;14.70;99.90;;;;;;5040611;28;20124;-71
2023/08/08 04:04:14;;;;;;;0.00;0.00;;;14.70;99.90;;;;;;5051399;28;20095;-71
2023/08/08 04:06:40;;;;;;;0.00;0.00;;;14.70;99.90;;;;;;5049885;28;20040;-71
2023/08/08 04:09:06;;;;;;;0.00;0.00;;;14.70;99.90;;;;;;5046352;28;20044;-71
2023/08/08 04:11:32;;;;;;;0.00;0.00;;;14.70;99.90;;;;;;5041603;28;20053;-71
2023/08/08 04:13:58;;;;;;;0.10;0.10;;;14.60;99.90;;;;;;5050305;28;20495;-71
2023/08/08 04:16:23;;;;;;;0.00;0.00;;;14.60;99.90;;;;;;5024978;28;20426;-71
2023/08/08 04:18:49;;;;;;;0.65;0.35;;;14.60;99.90;;;;;;5042547;28;20504;-71
2023/08/08 04:21:14;;;;;;;0.52;0.40;;;14.60;99.90;;;;;;5049303;28;20397;-70
2023/08/08 04:23:40;;;;;;;0.00;0.00;;;14.60;99.90;;;;;;5045546;28;20047;-71
2023/08/08 04:26:06;;;;;;;0.00;0.00;;;14.60;99.90;;;;;;5049056;28;20117;-71
2023/08/08 04:28:32;;;;;;;0.00;0.00;;;14.60;99.90;;;;;;5049168;28;20075;-71
2023/08/08 04:30:57;;;;;;;0.30;0.30;;;14.60;99.90;;;;;;5039698;28;20045;-71
2023/08/08 04:33:23;;;;;;;0.00;0.00;;;14.60;99.90;;;;;;5045269;28;20044;-71
2023/08/08 04:35:49;;;;;;;1.55;1.35;;;14.60;99.90;;;;;;5048799;28;20045;-71
2023/08/08 04:38:15;;;;;;;0.00;0.00;;;14.70;99.90;;;;;;5040678;28;20036;-71
2023/08/08 04:40:41;;;;;;;0.00;0.00;;;14.60;99.90;;;;;;5047018;28;20076;-71
2023/08/08 04:43:07;;;;;;;0.00;0.00;;;14.70;99.90;;;;;;5043050;28;20121;-70
2023/08/08 04:45:33;;;;;;;0.00;0.00;;;14.70;99.90;;;;;;5029595;28;20084;-71
2023/08/08 04:47:59;;;;;;;0.52;0.35;;;14.70;99.90;;;;;;5047086;28;20048;-71
2023/08/08 04:50:24;;;;;;;0.00;0.00;;;14.70;99.90;;;;;;5040171;28;20064;-71
2023/08/08 04:52:50;;;;;;;0.10;0.10;;;14.70;99.90;;;;;;5048934;28;20145;-70
2023/08/08 04:55:16;;;;;;;0.08;0.08;;;14.80;99.90;;;;;;5042023;28;20042;-70
2023/08/08 04:57:41;;;;;;;0.00;0.00;;;14.70;99.90;;;;;;5042489;28;20087;-70
2023/08/08 05:00:08;;;;;;;0.00;0.00;;;14.80;99.90;;;;;;5036779;28;20412;-70
2023/08/08 05:02:39;;;;;;;0.00;0.00;;;14.80;99.90;;;;;;5048762;28;20075;-70
2023/08/08 05:05:05;;;;;;;0.00;0.00;;;14.90;99.90;;;;;;5042568;28;20048;-70
2023/08/08 05:07:30;;;;;;;0.10;0.10;;;14.90;99.90;;;;;;5034159;28;20031;-71
2023/08/08 05:09:56;;;;;;;0.00;0.00;;;14.90;99.90;;;;;;5046160;28;20114;-70
2023/08/08 05:12:22;;;;;;;0.03;0.03;;;14.90;99.90;;;;;;5048989;28;20410;-70
2023/08/08 05:14:47;;;;;;;0.00;0.00;;;15.00;99.90;;;;;;5035035;28;20056;-70
2023/08/08 05:17:13;;;;;;;0.00;0.00;;;15.00;99.90;;;;;;5039682;28;20072;-70
2023/08/08 05:19:38;;;;;;;0.10;0.10;;;15.00;99.90;;;;;;5039868;28;20061;-70
2023/08/08 05:22:05;;;;;;;0.00;0.00;;;15.10;99.90;;;;;;5039898;28;20048;-70
2023/08/08 05:24:31;;;;;;;0.00;0.00;;;15.10;99.90;;;;;;5041001;28;20052;-69
2023/08/08 05:26:56;;;;;;;0.00;0.00;;;15.10;99.90;;;;;;5034949;28;20030;-70
2023/08/08 05:29:22;;;;;;;0.10;0.10;;;15.20;99.90;;;;;;5042664;28;20134;-69
2023/08/08 05:31:47;;;;;;;0.20;0.20;;;15.20;99.90;;;;;;5039120;28;20042;-70
2023/08/08 05:34:13;;;;;;;0.00;0.00;;;15.20;99.90;;;;;;5032628;28;20060;-69
2023/08/08 05:36:39;;;;;;;0.00;0.00;;;15.20;99.90;;;;;;5038123;28;20563;-70
2023/08/08 05:39:06;;;;;;;0.10;0.10;;;15.10;99.90;;;;;;5044016;28;20040;-70
2023/08/08 05:41:32;;;;;;;0.10;0.10;;;15.10;99.90;;;;;;5041889;28;20052;-70
2023/08/08 05:43:58;;;;;;;0.00;0.00;;;15.20;99.90;;;;;;5031374;28;20037;-69
2023/08/08 05:46:24;;;;;;;0.00;0.00;;;15.20;99.90;;;;;;5041607;28;20508;-70
2023/08/08 05:48:49;;;;;;;0.00;0.00;;;15.20;99.90;;;;;;5044762;28;20488;-70
2023/08/08 05:51:15;;;;;;;0.00;0.00;;;15.20;99.90;;;;;;5025007;28;20045;-70
2023/08/08 05:53:40;;;;;;;0.00;0.00;;;15.30;99.90;;;;;;5037472;28;20080;-70
2023/08/08 05:56:06;;;;;;;0.20;0.20;;;15.30;99.90;;;;;;5036485;28;20060;-70
2023/08/08 05:58:32;;;;;;;0.00;0.00;;;15.40;99.90;;;;;;5044187;28;20037;-70
2023/08/08 06:00:58;;;;;;;0.00;0.00;;;15.50;99.90;;;;;;5036594;28;20445;-70
2023/08/08 06:03:23;;;;;;;1.65;1.25;;;15.50;99.90;;;;;;5039231;28;20037;-70
2023/08/08 06:05:49;;;;;;;0.20;0.20;;;15.50;99.90;;;;;;5040934;28;20037;-70
2023/08/08 06:08:16;;;;;;;1.48;1.38;;;15.60;99.90;;;;;;5043043;28;20473;-70
2023/08/08 06:10:42;;;;;;;0.00;0.00;;;15.60;99.90;;;;;;5040844;28;20416;-70
2023/08/08 06:13:08;;;;;;;0.90;0.63;;;15.70;99.90;;;;;;5041848;28;20033;-69
2023/08/08 06:15:33;;;;;;;0.03;0.03;;;15.60;99.90;;;;;;5048323;28;20048;-69
2023/08/08 06:17:59;;;;;;;0.00;0.00;;;15.70;99.90;;;;;;5044608;28;20052;-69
2023/08/08 06:20:25;;;;;;;0.05;0.05;;;15.80;99.90;;;;;;5035069;28;20068;-70
2023/08/08 06:22:52;;;;;;;0.00;0.00;;;15.80;99.90;;;;;;5039710;28;20393;-69
2023/08/08 06:25:17;;;;;;;0.05;0.05;;;15.90;99.90;;;;;;5051464;28;20041;-69
2023/08/08 06:27:43;;;;;;;0.57;0.57;;;15.90;99.90;;;;;;5049459;28;20044;-70
2023/08/08 06:30:09;;;;;;;0.00;0.00;;;15.90;99.90;;;;;;5044264;28;20041;-69
2023/08/08 06:32:34;;;;;;;0.20;0.20;;;16.00;99.90;;;;;;5043804;28;20037;-69
2023/08/08 06:35:00;;;;;;;1.92;1.75;;;16.00;99.90;;;;;;5043024;28;20533;-68
2023/08/08 06:37:26;;;;;;;0.13;0.13;;;16.10;99.90;;;;;;5031354;28;20124;-69
2023/08/08 06:39:51;;;;;;;0.00;0.00;;;16.10;99.90;;;;;;5051710;28;20048;-69
2023/08/08 06:42:17;;;;;;;0.55;0.40;;;16.20;99.90;;;;;;5042086;28;20084;-69
2023/08/08 06:44:43;;;;;;;0.63;0.63;;;16.20;99.90;;;;;;5041928;28;20717;-68
2023/08/08 06:47:09;;;;;;;0.08;0.08;;;16.20;99.90;;;;;;5026127;28;20050;-69
2023/08/08 06:49:35;;;;;;;1.15;0.98;;;16.20;99.90;;;;;;5048030;28;20037;-69
2023/08/08 06:52:01;;;;;;;2.03;0.35;;;16.20;99.90;;;;;;5037019;28;20072;-69
2023/08/08 06:54:28;;;;;;;0.15;0.15;;;16.30;99.90;;;;;;5045017;28;20045;-69
2023/08/08 06:56:56;;;;;;;0.20;0.20;;;16.30;99.90;;;;;;5042051;28;20574;-68
2023/08/08 06:59:22;;;;;;;2.40;0.77;;;16.30;99.90;;;;;;5039639;28;20480;-70
2023/08/08 07:01:48;;;;;;;0.00;0.00;;;16.40;99.90;;;;;;5045116;28;20071;-68
2023/08/08 07:04:14;;;;;;;0.08;0.08;;;16.50;99.90;;;;;;5047410;28;20045;-69
2023/08/08 07:06:40;;;;;;;0.00;0.00;;;16.50;99.90;;;;;;5040317;28;20046;-69
2023/08/08 07:09:06;;;;;;;0.00;0.00;;;16.50;99.90;;;;;;5034796;28;20041;-69
2023/08/08 07:11:32;;;;;;;0.08;0.08;;;16.40;99.90;;;;;;5044071;28;20044;-69
2023/08/08 07:13:57;;;;;;;0.80;0.22;;;16.50;99.90;;;;;;5047810;28;20046;-69
2023/08/08 07:16:23;;;;;;;0.00;0.00;;;16.50;99.90;;;;;;5047413;28;20037;-69
2023/08/08 07:18:49;;;;;;;1.55;0.55;;;16.50;99.90;;;;;;5037833;28;20083;-69
2023/08/08 07:21:15;;;;;;;0.55;0.50;;;16.60;99.90;;;;;;5049805;28;20032;-70
2023/08/08 07:23:40;;;;;;;0.10;0.10;;;16.60;99.90;;;;;;5045555;28;20040;-69
2023/08/08 07:26:06;;;;;;;0.30;0.30;;;16.60;99.90;;;;;;5041398;28;20049;-69
2023/08/08 07:28:32;;;;;;;0.10;0.10;;;16.60;99.90;;;;;;5043434;28;20037;-68
2023/08/08 07:30:58;;;;;;;0.70;0.57;;;16.60;99.90;;;;;;5039097;28;20049;-70
2023/08/08 07:33:23;;;;;;;0.00;0.00;;;16.70;99.90;;;;;;5033881;28;20041;-70
2023/08/08 07:35:49;;;;;;;0.00;0.00;;;16.70;99.90;;;;;;5040264;28;20053;-69
2023/08/08 07:38:15;;;;;;;1.27;0.98;;;16.70;99.90;;;;;;5042127;28;20079;-70
2023/08/08 07:40:41;;;;;;;0.10;0.10;;;16.70;99.90;;;;;;5048697;28;20045;-70
2023/08/08 07:43:07;;;;;;;0.00;0.00;;;16.70;99.90;;;;;;5047905;28;20393;-67
2023/08/08 07:45:32;;;;;;;0.00;0.00;;;16.70;99.90;;;;;;5034743;28;20049;-68
2023/08/08 07:47:58;;;;;;;0.20;0.20;;;16.70;99.90;;;;;;5042577;28;20039;-68
2023/08/08 07:50:23;;;;;;;0.73;0.73;;;16.70;99.90;;;;;;5047861;28;20060;-68
2023/08/08 07:52:49;;;;;;;0.00;0.00;;;16.80;99.90;;;;;;5039932;28;20033;-68
2023/08/08 07:55:15;;;;;;;0.00;0.00;;;16.80;99.90;;;;;;5045456;28;20056;-68
2023/08/08 07:57:42;;;;;;;1.55;0.43;;;16.80;99.90;;;;;;5046132;28;20045;-68
2023/08/08 08:00:13;;;;;;;0.00;0.00;;;16.80;99.90;;;;;;5041852;28;20487;-68
2023/08/08 08:02:41;;;;;;;0.00;0.00;;;16.80;99.90;;;;;;5046209;28;20053;-69
2023/08/08 08:05:07;;;;;;;0.00;0.00;;;16.80;99.90;;;;;;5017038;28;20430;-68
2023/08/08 08:07:34;;;;;;;0.00;0.00;;;16.90;99.90;;;;;;5045190;28;20040;-68
2023/08/08 08:10:01;;;;;;;0.13;0.13;;;16.90;99.90;;;;;;5049786;28;20136;-68
2023/08/08 08:12:27;;;;;;;0.00;0.00;;;17.00;99.90;;;;;;5041996;28;20037;-69
2023/08/08 08:14:52;;;;;;;0.30;0.30;;;17.10;99.90;;;;;;5036284;28;20041;-68
2023/08/08 08:17:18;;;;;;;0.00;0.00;;;17.30;99.90;;;;;;5039553;28;20472;-68
2023/08/08 08:19:43;;;;;;;0.00;0.00;;;17.30;99.90;;;;;;5042295;28;20037;-68
2023/08/08 08:22:09;;;;;;;0.00;0.00;;;17.40;99.90;;;;;;5043103;28;20073;-68
2023/08/08 08:24:35;;;;;;;0.45;0.40;;;17.50;99.90;;;;;;5038423;28;20366;-68
2023/08/08 08:27:00;;;;;;;0.00;0.00;;;17.50;99.90;;;;;;5036592;28;20045;-69
2023/08/08 08:29:26;;;;;;;0.20;0.20;;;17.40;99.90;;;;;;5020741;28;20538;-69
2023/08/08 08:31:51;;;;;;;0.47;0.47;;;17.20;99.90;;;;;;5041828;28;20475;-68
2023/08/08 08:34:17;;;;;;;0.10;0.10;;;17.20;99.90;;;;;;5042808;28;20058;-69
2023/08/08 08:36:43;;;;;;;0.22;0.22;;;17.20;99.90;;;;;;5040031;28;20045;-69
2023/08/08 08:39:09;;;;;;;0.30;0.30;;;17.40;99.90;;;;;;5042212;28;20081;-68
2023/08/08 08:41:37;;;;;;;0.20;0.20;;;17.30;99.90;;;;;;5038884;28;20045;-69
2023/08/08 08:44:04;;;;;;;0.00;0.00;;;17.20;99.90;;;;;;5039264;28;20050;-69
2023/08/08 08:46:30;;;;;;;3.35;0.73;;;17.20;99.90;;;;;;5046579;28;20052;-69
2023/08/08 08:48:59;;;;;;;0.00;0.00;;;17.20;99.90;;;;;;5034247;28;20094;-69
2023/08/08 08:51:25;;;;;;;0.00;0.00;;;17.30;99.90;;;;;;5043652;28;20080;-68
2023/08/08 08:53:51;;;;;;;0.03;0.03;;;17.40;99.90;;;;;;5044369;28;20489;-69
2023/08/08 08:56:18;;;;;;;1.55;0.65;;;17.50;99.90;;;;;;5038223;28;20140;-70
2023/08/08 08:58:43;;;;;;;0.10;0.10;;;17.50;99.90;;;;;;5039987;28;20403;-69
2023/08/08 09:01:09;;;;;;;0.55;0.55;;;17.50;99.90;;;;;;5016106;28;20139;-69
2023/08/08 09:03:36;;;;;;;0.00;0.00;;;17.70;99.90;;;;;;5043711;28;20052;-69
2023/08/08 09:06:04;;;;;;;0.00;0.00;;;17.70;99.90;;;;;;5026675;28;20052;-68
2023/08/08 09:08:29;;;;;;;0.10;0.10;;;17.70;99.90;;;;;;5034875;28;20036;-69
2023/08/08 09:10:58;;;;;;;1.27;0.73;;;17.70;99.90;;;;;;5037629;28;20102;-68
2023/08/08 09:13:27;;;;;;;0.13;0.13;;;17.70;99.90;;;;;;5040160;28;20041;-68
2023/08/08 09:15:55;;;;;;;0.00;0.00;;;17.70;99.90;;;;;;5036391;28;20073;-68
2023/08/08 09:18:24;;;;;;;0.10;0.10;;;17.80;99.90;;;;;;5033689;28;20037;-69
2023/08/08 09:20:50;;;;;;;0.10;0.10;;;17.80;99.90;;;;;;5040872;28;20551;-69
2023/08/08 09:23:16;;;;;;;0.00;0.00;;;17.90;99.90;;;;;;5034405;28;20045;-69
2023/08/08 09:25:41;;;;;;;0.00;0.00;;;18.30;99.90;;;;;;5041212;28;20040;-68
2023/08/08 09:28:07;;;;;;;0.80;0.52;;;18.30;99.90;;;;;;5049602;28;20064;-68
2023/08/08 09:30:34;;;;;;;0.00;0.00;;;18.10;99.90;;;;;;5046858;28;20037;-69
2023/08/08 09:33:01;;;;;;;0.00;0.00;;;17.90;99.90;;;;;;5036773;28;20037;-69
2023/08/08 09:35:28;;;;;;;0.70;0.70;;;17.60;99.90;;;;;;5039747;28;20514;-69
2023/08/08 09:37:55;;;;;;;0.00;0.00;;;17.30;99.90;;;;;;5045074;28;20045;-69
2023/08/08 09:40:22;;;;;;;0.10;0.10;;;17.60;99.90;;;;;;5038948;28;20044;-69
2023/08/08 09:42:48;;;;;;;0.20;0.20;;;18.00;99.90;;;;;;5033509;28;20041;-69
2023/08/08 09:45:14;;;;;;;0.03;0.03;;;18.00;99.90;;;;;;5028635;28;20052;-69
2023/08/08 09:47:40;;;;;;;0.00;0.00;;;17.80;99.90;;;;;;5019962;28;20049;-69
2023/08/08 09:50:06;;;;;;;0.10;0.10;;;17.60;99.90;;;;;;5035834;28;20049;-69
2023/08/08 09:52:33;;;;;;;0.00;0.00;;;17.70;99.90;;;;;;5036653;28;20444;-69
2023/08/08 09:55:00;;;;;;;0.00;0.00;;;18.30;99.90;;;;;;5031563;28;20040;-69
2023/08/08 09:57:26;;;;;;;0.15;0.15;;;18.30;99.90;;;;;;5016347;28;20049;-69
2023/08/08 09:59:52;;;;;;;0.00;0.00;;;18.60;99.90;;;;;;5035893;28;20034;-69
2023/08/08 10:02:18;;;;;;;0.30;0.30;;;18.70;99.90;;;;;;5045324;28;20049;-70
2023/08/08 10:04:47;;;;;;;0.00;0.00;;;18.90;99.90;;;;;;5044646;28;20202;-71
2023/08/08 10:07:14;;;;;;;0.00;0.00;;;19.10;99.90;;;;;;5028866;28;20053;-71
2023/08/08 10:09:40;;;;;;;0.00;0.00;;;19.40;99.90;;;;;;5048603;28;20116;-70
2023/08/08 10:12:06;;;;;;;0.20;0.20;;;19.50;99.90;;;;;;5046200;28;20057;-70
2023/08/08 10:14:34;;;;;;;0.10;0.10;;;19.40;99.90;;;;;;5043885;28;20041;-70
2023/08/08 10:17:03;;;;;;;0.00;0.00;;;19.50;99.90;;;;;;5035249;28;20107;-70
2023/08/08 10:19:29;;;;;;;0.10;0.10;;;19.70;99.90;;;;;;5037581;28;20463;-70
2023/08/08 10:22:00;;;;;;;0.00;0.00;;;20.20;99.90;;;;;;5026532;28;20050;-70
2023/08/08 10:24:26;;;;;;;0.00;0.00;;;20.20;99.90;;;;;;5043429;28;20040;-70
2023/08/08 10:27:00;;;;;;;0.00;0.00;;;20.20;99.90;;;;;;5033509;28;20143;-70
2023/08/08 10:29:27;;;;;;;0.00;0.00;;;19.80;99.90;;;;;;5038585;28;20045;-71
2023/08/08 10:32:01;;;;;;;0.00;0.00;;;19.70;99.90;;;;;;5037978;28;20524;-70
2023/08/08 10:34:40;;;;;;;3.03;0.90;;;20.00;99.90;;;;;;5040521;28;20053;-71
2023/08/08 10:37:18;;;;;;;0.65;0.40;;;19.60;99.90;;;;;;5042828;28;20374;-71
2023/08/08 10:40:00;;;;;;;0.00;0.00;;;19.40;99.90;;;;;;5032226;28;20033;-70
2023/08/08 10:42:28;;;;;;;0.00;0.00;;;19.30;99.90;;;;;;5039377;28;20041;-71
2023/08/08 10:44:56;;;;;;;0.43;0.20;;;19.60;99.90;;;;;;5047584;28;20459;-70
2023/08/08 10:47:34;;;;;;;0.10;0.10;;;19.30;99.90;;;;;;5017870;28;20045;-71
2023/08/08 10:50:22;;;;;;;0.00;0.00;;;19.50;99.90;;;;;;5044059;28;20037;-70
2023/08/08 10:52:53;;;;;;;2.40;0.55;;;19.70;99.90;;;;;;5023616;28;20111;-70
2023/08/08 10:55:19;;;;;;;0.10;0.10;;;19.80;99.90;;;;;;5041970;28;20052;-70
2023/08/08 10:58:04;;;;;;;0.00;0.00;;;19.70;99.90;;;;;;5038693;28;20052;-71
2023/08/08 11:00:32;;;;;;;0.73;0.73;;;19.60;99.90;;;;;;5043429;28;20396;-70
2023/08/08 11:02:59;;;;;;;0.00;0.00;;;19.30;99.90;;;;;;5040314;28;20476;-70
2023/08/08 11:05:26;;;;;;;1.25;0.88;;;19.60;99.90;;;;;;5033800;28;20052;-69
2023/08/08 11:07:52;;;;;;;0.00;0.00;;;19.80;99.90;;;;;;5040161;28;20505;-70
2023/08/08 11:10:18;;;;;;;0.00;0.00;;;19.80;99.90;;;;;;5046801;28;20077;-70
2023/08/08 11:13:04;;;;;;;0.15;0.15;;;19.90;99.90;;;;;;5027138;28;20079;-70
2023/08/08 11:15:32;;;;;;;0.00;0.00;;;20.20;99.90;;;;;;5040454;28;20542;-69
2023/08/08 11:17:59;;;;;;;0.20;0.20;;;19.70;99.90;;;;;;5046647;28;20041;-70
2023/08/08 11:20:25;;;;;;;0.60;0.40;;;19.90;99.90;;;;;;5041654;28;20061;-69
2023/08/08 11:22:55;;;;;;;0.00;0.00;;;19.60;99.90;;;;;;5046510;28;20484;-70
2023/08/08 11:25:29;;;;;;;0.00;0.00;;;19.70;99.90;;;;;;5050978;28;20063;-70
2023/08/08 11:27:56;;;;;;;0.15;0.15;;;19.80;99.90;;;;;;5040726;28;20556;-71
2023/08/08 11:30:22;;;;;;;0.90;0.52;;;19.80;99.90;;;;;;5050690;28;20084;-70
2023/08/08 11:32:49;;;;;;;0.30;0.30;;;19.50;99.90;;;;;;5045991;28;20041;-70
2023/08/08 11:35:21;;;;;;;0.00;0.00;;;19.20;99.90;;;;;;5049936;28;20775;-71
2023/08/08 11:37:48;;;;;;;0.50;0.50;;;19.10;99.90;;;;;;5032086;28;20053;-73
2023/08/08 11:40:15;;;;;;;0.98;0.75;;;19.20;99.90;;;;;;5024037;28;20052;-73
2023/08/08 11:42:42;;;;;;;0.20;0.20;;;19.20;99.90;;;;;;5040265;28;20472;-73
2023/08/08 11:45:14;;;;;;;6.07;2.63;;;19.00;99.90;;;;;;5043548;28;20057;-72
2023/08/08 11:47:40;;;;;;;0.03;0.03;;;19.00;99.90;;;;;;5039561;28;20094;-72
2023/08/08 11:50:08;;;;;;;0.00;0.00;;;18.90;99.90;;;;;;5050679;28;20048;-71
2023/08/08 11:52:41;;;;;;;0.00;0.00;;;19.00;99.90;;;;;;5026035;28;20045;-71
2023/08/08 11:55:10;;;;;;;0.00;0.00;;;19.20;99.90;;;;;;5043354;28;20124;-72
2023/08/08 11:57:37;;;;;;;0.00;0.00;;;19.20;99.90;;;;;;5029044;28;20065;-73
2023/08/08 12:00:08;;;;;;;0.00;0.00;;;19.60;99.90;;;;;;5043783;28;20073;-72
2023/08/08 12:02:34;;;;;;;0.10;0.10;;;19.80;99.90;;;;;;5040429;28;20046;-71
2023/08/08 12:05:11;;;;;;;0.20;0.20;;;20.00;99.90;;;;;;5049865;28;20048;-70
2023/08/08 12:07:41;;;;;;;0.05;0.05;;;20.30;99.90;;;;;;5025907;28;20077;-75
2023/08/08 12:10:16;;;;;;;0.00;0.00;;;20.80;99.90;;;;;;5033844;28;20388;-71
2023/08/08 12:12:42;;;;;;;1.15;0.32;;;20.70;99.90;;;;;;5045680;28;20044;-72
2023/08/08 12:15:08;;;;;;;0.00;0.00;;;20.30;99.90;;;;;;5048917;28;20047;-71
2023/08/08 12:17:36;;;;;;;5.10;2.40;;;19.90;99.90;;;;;;5038344;28;20063;-72
2023/08/08 12:20:09;;;;;;;0.13;0.13;;;19.40;99.90;;;;;;5021781;28;20049;-70
2023/08/08 12:22:35;;;;;;;17.05;1.35;;;19.50;99.90;;;;;;5044481;28;20060;-71
2023/08/08 12:25:01;;;;;;;0.47;0.35;;;20.30;99.90;;;;;;5039555;28;20053;-72
2023/08/08 12:27:26;;;;;;;0.28;0.22;;;20.80;99.90;;;;;;5044872;28;20033;-71
2023/08/08 12:29:52;;;;;;;0.08;0.08;;;20.60;99.90;;;;;;5042956;28;20053;-71
2023/08/08 12:32:23;;;;;;;0.30;0.30;;;20.20;99.90;;;;;;5035425;28;20483;-73
2023/08/08 12:34:49;;;;;;;0.00;0.00;;;20.00;99.90;;;;;;5039943;28;20068;-72
2023/08/08 12:37:15;;;;;;;1.23;0.73;;;20.40;99.90;;;;;;5034575;28;20045;-71
2023/08/08 12:39:41;;;;;;;0.00;0.00;;;20.60;99.90;;;;;;5023003;28;20603;-72
2023/08/08 12:42:06;;;;;;;0.25;0.25;;;20.60;99.90;;;;;;5020399;28;20183;-70
2023/08/08 12:44:32;;;;;;;0.00;0.00;;;20.40;99.90;;;;;;5044791;28;20041;-70
2023/08/08 12:46:58;;;;;;;0.52;0.52;;;20.50;99.90;;;;;;5040913;28;20120;-71